Time;durP1;ratioP1;P1;durP2;ratioP2;P2;SDS_P1;SDS_P2;PMS_P1;PMS_P2;Temp;Humidity;BMP_temperature;BMP_pressure;BME280_temperature;BME280_humidity;BME280_pressure;Samples;Min_cycle;Max_cycle;Signal;HPM_P1;HPM_P2
2022/11/04 00:01:43;;;;;;;21.25;13.13;;;11.40;99.90;;;;;;5070987;28;20032;-80
2022/11/04 00:04:10;;;;;;;16.60;11.23;;;11.40;99.90;;;;;;5071367;28;20067;-79
2022/11/04 00:06:37;;;;;;;22.98;12.90;;;11.40;99.90;;;;;;5054336;28;20101;-81
2022/11/04 00:09:03;;;;;;;;;;;11.50;99.90;;;;;;5054886;28;20100;-80
2022/11/04 00:14:14;;;;;;;17.25;10.30;;;11.40;99.90;;;;;;5071141;28;20401;-80
2022/11/04 00:19:24;;;;;;;18.00;10.80;;;11.40;99.90;;;;;;5070732;28;20090;-80
2022/11/04 00:30:08;;;;;;;15.80;10.77;;;11.50;99.90;;;;;;5056930;28;20087;-80
2022/11/04 00:35:19;;;;;;;10.85;6.80;;;11.60;99.90;;;;;;5070744;28;20044;-80
2022/11/04 00:37:45;;;;;;;6.93;4.97;;;11.60;99.90;;;;;;5070373;28;20377;-80
2022/11/04 00:40:13;;;;;;;5.57;3.85;;;11.40;99.90;;;;;;5070614;28;20039;-80
2022/11/04 00:42:39;;;;;;;6.25;3.97;;;11.30;99.90;;;;;;5069888;28;20033;-80
2022/11/04 00:45:08;;;;;;;7.03;3.83;;;11.20;99.90;;;;;;5070494;28;20044;-80
2022/11/04 00:47:34;;;;;;;6.00;3.17;;;11.20;99.90;;;;;;5052999;28;20504;-80
2022/11/04 00:49:59;;;;;;;4.68;3.35;;;11.10;99.90;;;;;;5053545;28;20111;-80
2022/11/04 00:52:25;;;;;;;4.07;2.50;;;11.10;99.90;;;;;;5053525;28;20374;-80
2022/11/04 00:54:51;;;;;;;2.53;1.50;;;11.00;99.90;;;;;;5070079;28;20041;-80
2022/11/04 00:57:16;;;;;;;3.53;1.52;;;11.00;99.90;;;;;;5069967;28;20044;-80
2022/11/04 00:59:44;;;;;;;3.60;1.00;;;10.90;99.90;;;;;;5036695;28;20032;-80
2022/11/04 01:02:11;;;;;;;2.33;1.23;;;10.80;99.90;;;;;;5070135;28;20798;-80
2022/11/04 01:04:36;;;;;;;;;;;10.80;99.90;;;;;;5070352;28;21026;-80
2022/11/04 01:07:02;;;;;;;1.35;0.60;;;10.80;99.90;;;;;;5070083;28;19948;-80
2022/11/04 01:09:28;;;;;;;2.13;0.82;;;10.80;99.90;;;;;;5069803;28;20119;-80
2022/11/04 01:11:54;;;;;;;2.30;0.87;;;10.80;99.90;;;;;;5052876;28;20607;-80
2022/11/04 01:14:20;;;;;;;1.67;0.60;;;10.70;99.90;;;;;;5035785;28;20146;-80
2022/11/04 01:16:47;;;;;;;1.15;0.50;;;10.70;99.90;;;;;;5052972;28;20032;-80
2022/11/04 01:19:13;;;;;;;4.80;0.75;;;10.60;99.90;;;;;;5053260;28;20028;-80
2022/11/04 01:21:38;;;;;;;2.73;1.10;;;10.70;99.90;;;;;;5069202;28;20128;-80
2022/11/04 01:24:04;;;;;;;10.15;1.77;;;10.60;99.90;;;;;;5069653;28;20124;-80
2022/11/04 01:26:30;;;;;;;0.90;0.40;;;10.60;99.90;;;;;;5052907;28;20436;-80
2022/11/04 01:28:57;;;;;;;0.90;0.40;;;10.60;99.90;;;;;;5069053;28;20080;-80
2022/11/04 01:31:28;;;;;;;1.70;0.40;;;10.60;99.90;;;;;;5069772;28;20366;-79
2022/11/04 01:33:54;;;;;;;3.38;0.93;;;10.60;99.90;;;;;;5068479;28;20148;-80
2022/11/04 01:36:21;;;;;;;1.27;0.35;;;10.50;99.90;;;;;;5052832;28;20121;-80
2022/11/04 01:38:48;;;;;;;2.47;0.30;;;10.50;99.90;;;;;;5069104;28;20029;-80
2022/11/04 01:41:19;;;;;;;;;;;10.60;99.90;;;;;;5053331;28;20045;-80
2022/11/04 01:43:55;;;;;;;3.65;0.47;;;10.60;99.90;;;;;;5052467;28;19923;-80
2022/11/04 01:46:33;;;;;;;2.25;0.60;;;10.60;99.90;;;;;;5069325;28;20043;-80
2022/11/04 01:49:08;;;;;;;0.75;0.40;;;10.60;99.90;;;;;;5068183;28;20044;-79
2022/11/04 01:51:36;;;;;;;1.38;0.40;;;10.60;99.90;;;;;;5049729;28;20047;-80
2022/11/04 01:54:05;;;;;;;1.85;0.30;;;10.60;99.90;;;;;;5051647;28;20405;-79
2022/11/04 01:56:32;;;;;;;3.47;0.40;;;10.70;99.90;;;;;;5067875;28;20153;-79
2022/11/04 01:59:01;;;;;;;;;;;10.70;99.90;;;;;;5068194;28;20080;-79
2022/11/04 02:01:27;;;;;;;0.70;0.28;;;10.70;99.90;;;;;;5068310;28;20372;-79
2022/11/04 02:04:24;;;;;;;0.60;0.40;;;10.70;99.90;;;;;;5034543;28;20040;-79
2022/11/04 02:06:45;;;;;;;1.80;0.40;;;10.70;99.90;;;;;;5066295;28;20040;-79
2022/11/04 02:09:12;;;;;;;1.33;0.40;;;10.60;99.90;;;;;;5068822;28;20044;-80
2022/11/04 02:14:24;;;;;;;3.42;0.50;;;10.60;99.90;;;;;;5043289;28;19931;-80
2022/11/04 02:16:52;;;;;;;5.45;0.40;;;10.60;99.90;;;;;;5052207;28;20039;-80
2022/11/04 02:19:47;;;;;;;7.80;0.50;;;10.60;99.90;;;;;;5069112;28;20102;-79
2022/11/04 02:22:58;;;;;;;3.42;0.60;;;10.50;99.90;;;;;;5050742;28;20052;-80
2022/11/04 02:25:31;;;;;;;4.97;0.50;;;10.50;99.90;;;;;;5018389;28;20504;-79
2022/11/04 02:28:14;;;;;;;4.57;1.02;;;10.50;99.90;;;;;;5061820;28;20060;-79
2022/11/04 02:31:01;;;;;;;4.13;0.50;;;10.50;99.90;;;;;;5068066;28;20047;-79
2022/11/04 02:33:57;;;;;;;5.33;0.40;;;10.40;99.90;;;;;;5066589;28;20488;-80
2022/11/04 02:36:41;;;;;;;6.13;0.63;;;10.50;99.90;;;;;;5019420;28;20040;-79
2022/11/04 02:39:46;;;;;;;3.58;0.40;;;10.50;99.90;;;;;;5068928;28;20033;-80
2022/11/04 02:42:31;;;;;;;2.92;0.52;;;10.40;99.90;;;;;;5050657;28;20033;-79
2022/11/04 02:45:15;;;;;;;2.80;0.60;;;10.40;99.90;;;;;;5067846;28;20082;-80
2022/11/04 02:47:49;;;;;;;3.30;0.40;;;10.40;99.90;;;;;;5072085;28;20071;-80
2022/11/04 02:50:50;;;;;;;15.23;1.15;;;10.40;99.90;;;;;;5072731;28;20045;-79
2022/11/04 02:53:25;;;;;;;3.13;0.55;;;10.40;99.90;;;;;;5072447;28;20102;-79
2022/11/04 02:55:55;;;;;;;4.20;0.60;;;10.40;99.90;;;;;;5071393;28;20036;-79
2022/11/04 02:58:28;;;;;;;9.27;1.00;;;10.40;99.90;;;;;;5072772;28;21734;-79
2022/11/04 03:00:56;;;;;;;9.10;2.15;;;10.30;99.90;;;;;;5055308;28;20048;-79
2022/11/04 03:03:26;;;;;;;4.30;0.60;;;10.30;99.90;;;;;;5072248;28;20179;-80
2022/11/04 03:05:55;;;;;;;6.13;0.60;;;10.40;99.90;;;;;;5055787;28;20044;-80
2022/11/04 03:08:34;;;;;;;4.78;0.40;;;10.30;99.90;;;;;;5055851;28;20036;-79
2022/11/04 03:11:12;;;;;;;3.42;0.50;;;10.30;99.90;;;;;;5070925;28;20095;-80
2022/11/04 03:13:54;;;;;;;4.95;1.33;;;10.30;99.90;;;;;;5072041;28;20067;-80
2022/11/04 03:16:35;;;;;;;3.60;0.52;;;10.40;99.90;;;;;;5072142;28;20055;-81
2022/11/04 03:19:10;;;;;;;4.75;0.60;;;10.30;99.90;;;;;;5071840;28;20047;-80
2022/11/04 03:21:41;;;;;;;2.63;1.10;;;10.30;99.90;;;;;;5055084;28;20091;-80
2022/11/04 03:24:07;;;;;;;3.58;0.70;;;10.30;99.90;;;;;;5055440;28;20090;-80
2022/11/04 03:26:45;;;;;;;4.35;0.40;;;10.30;99.90;;;;;;5037948;28;20481;-80
2022/11/04 03:29:40;;;;;;;2.08;0.50;;;10.30;99.90;;;;;;5055203;28;20044;-80
2022/11/04 03:32:14;;;;;;;3.00;0.50;;;10.40;99.90;;;;;;5030239;28;20062;-80
2022/11/04 03:34:40;;;;;;;2.53;0.40;;;10.40;99.90;;;;;;5071928;28;20037;-81
2022/11/04 03:37:06;;;;;;;4.10;1.52;;;10.70;99.90;;;;;;5071673;28;20387;-80
2022/11/04 03:39:32;;;;;;;3.05;0.73;;;10.70;99.90;;;;;;5054928;28;20032;-81
2022/11/04 03:42:02;;;;;;;3.85;0.70;;;10.40;99.90;;;;;;5055187;28;20135;-80
2022/11/04 03:44:29;;;;;;;4.28;0.70;;;10.40;99.90;;;;;;5071411;28;20036;-81
2022/11/04 03:46:54;;;;;;;;;;;10.40;99.90;;;;;;5055302;28;20514;-81
2022/11/04 03:49:22;;;;;;;1.70;0.43;;;10.40;99.90;;;;;;5071481;28;19916;-81
2022/11/04 03:51:48;;;;;;;5.80;0.80;;;10.90;99.90;;;;;;5071468;28;20044;-81
2022/11/04 03:54:14;;;;;;;;;;;10.50;99.90;;;;;;5071515;28;20040;-81
2022/11/04 03:57:30;;;;;;;2.70;0.60;;;10.40;99.90;;;;;;5054312;28;19916;-80
2022/11/04 03:59:56;;;;;;;5.03;0.80;;;10.50;99.90;;;;;;5070760;28;20040;-81
2022/11/04 04:02:23;;;;;;;2.27;0.70;;;10.50;99.90;;;;;;5071207;28;20044;-80
2022/11/04 04:04:57;;;;;;;4.50;0.90;;;10.80;99.90;;;;;;5071541;28;20453;-81
2022/11/04 04:07:32;;;;;;;7.53;1.02;;;10.50;99.90;;;;;;5069502;28;20041;-80
2022/11/04 04:10:39;;;;;;;4.13;0.65;;;10.50;99.90;;;;;;5071175;28;20051;-81
2022/11/04 04:13:43;;;;;;;4.75;0.73;;;10.60;99.90;;;;;;5071130;28;20361;-80
2022/11/04 04:16:21;;;;;;;6.13;1.08;;;10.60;99.90;;;;;;5070289;28;20431;-80
2022/11/04 04:18:49;;;;;;;5.07;1.08;;;10.50;99.90;;;;;;5071208;28;20029;-80
2022/11/04 04:21:20;;;;;;;5.78;1.40;;;10.50;99.90;;;;;;5070132;28;20115;-79
2022/11/04 04:29:19;;;;;;;2.75;0.80;;;10.40;99.90;;;;;;5056229;28;19946;-78
2022/11/04 04:31:51;;;;;;;5.57;1.02;;;10.40;99.90;;;;;;5070471;28;20047;-78
2022/11/04 04:34:27;;;;;;;4.70;0.70;;;10.30;99.90;;;;;;5053508;28;20123;-79
2022/11/04 04:37:20;;;;;;;5.13;0.63;;;10.30;99.90;;;;;;5070914;28;20464;-78
2022/11/04 04:45:31;;;;;;;3.33;0.90;;;10.10;99.90;;;;;;5053943;28;20052;-79
2022/11/04 04:47:57;;;;;;;4.20;0.60;;;10.10;99.90;;;;;;5069974;28;20127;-79
2022/11/04 04:50:27;;;;;;;4.60;0.60;;;10.00;99.90;;;;;;5070549;28;20111;-79
2022/11/04 04:52:55;;;;;;;5.82;0.60;;;10.10;99.90;;;;;;5070472;28;20109;-79
2022/11/04 04:55:20;;;;;;;4.43;0.80;;;10.00;99.90;;;;;;5053425;28;20044;-79
2022/11/04 04:57:46;;;;;;;3.00;0.60;;;10.00;99.90;;;;;;5053740;28;20115;-79
2022/11/04 05:00:15;;;;;;;2.70;0.33;;;10.00;99.90;;;;;;5053183;28;20282;-79
2022/11/04 05:02:41;;;;;;;2.08;0.50;;;10.00;99.90;;;;;;5051706;28;20283;-79
2022/11/04 05:05:07;;;;;;;2.00;0.40;;;9.90;99.90;;;;;;5052881;28;20123;-79
2022/11/04 05:07:33;;;;;;;2.92;0.40;;;9.90;99.90;;;;;;5069895;28;20125;-79
2022/11/04 05:09:59;;;;;;;1.40;0.50;;;9.80;99.90;;;;;;5069134;28;20495;-79
2022/11/04 05:12:24;;;;;;;5.73;0.70;;;9.80;99.90;;;;;;5070090;28;20492;-80
2022/11/04 05:14:50;;;;;;;1.60;0.37;;;9.80;99.90;;;;;;5053523;28;20485;-80
2022/11/04 05:17:16;;;;;;;2.60;0.50;;;9.80;99.90;;;;;;5069344;28;20036;-81
2022/11/04 05:19:42;;;;;;;1.65;0.50;;;9.80;99.90;;;;;;5036585;28;20037;-82
2022/11/04 05:22:07;;;;;;;3.23;0.50;;;9.80;99.90;;;;;;5069479;28;20063;-82
2022/11/04 05:24:33;;;;;;;1.88;0.50;;;9.80;99.90;;;;;;5053082;28;20048;-79
2022/11/04 05:26:59;;;;;;;3.53;0.50;;;9.80;99.90;;;;;;5053394;28;20045;-81
2022/11/04 05:29:24;;;;;;;1.00;0.40;;;9.80;99.90;;;;;;5036771;28;20163;-82
2022/11/04 05:31:50;;;;;;;2.10;0.40;;;9.80;99.90;;;;;;5037040;28;20033;-81
2022/11/04 05:34:16;;;;;;;2.43;0.80;;;9.80;99.90;;;;;;5069224;28;20040;-79
2022/11/04 05:36:41;;;;;;;2.78;0.98;;;9.80;99.90;;;;;;5053425;28;20086;-80
2022/11/04 05:39:11;;;;;;;1.20;0.43;;;9.70;99.90;;;;;;5069331;28;20123;-80
2022/11/04 05:41:37;;;;;;;3.35;0.60;;;9.70;99.90;;;;;;5069840;28;20097;-81
2022/11/04 05:44:03;;;;;;;1.70;0.30;;;9.70;99.90;;;;;;5069614;28;20056;-81
2022/11/04 05:46:30;;;;;;;1.65;0.38;;;9.70;99.90;;;;;;5052607;28;20119;-82
2022/11/04 05:48:55;;;;;;;4.68;0.50;;;9.70;99.90;;;;;;5069695;28;20044;-81
2022/11/04 05:51:24;;;;;;;4.22;0.55;;;9.70;99.90;;;;;;5069235;28;20067;-81
2022/11/04 05:53:50;;;;;;;2.90;0.65;;;9.60;99.90;;;;;;5052979;28;20063;-81
2022/11/04 05:56:17;;;;;;;2.75;0.47;;;9.60;99.90;;;;;;5069246;28;20036;-82
2022/11/04 05:58:42;;;;;;;1.80;0.77;;;9.60;99.90;;;;;;5069670;28;20036;-82
2022/11/04 06:01:27;;;;;;;0.97;0.43;;;9.60;99.90;;;;;;5052609;28;20074;-82
2022/11/04 06:03:53;;;;;;;4.57;0.60;;;9.60;99.90;;;;;;5053332;28;20389;-82
2022/11/04 06:06:20;;;;;;;0.70;0.40;;;9.50;99.90;;;;;;5052602;28;20094;-82
2022/11/04 06:08:46;;;;;;;3.65;0.50;;;9.50;99.90;;;;;;5070106;28;20032;-82
2022/11/04 06:11:12;;;;;;;4.40;1.60;;;9.50;99.90;;;;;;5052916;28;20033;-82
2022/11/04 06:13:38;;;;;;;2.13;0.40;;;9.40;99.90;;;;;;5069392;28;20041;-82
2022/11/04 06:16:04;;;;;;;2.40;0.50;;;9.40;99.90;;;;;;5069344;28;20123;-82
2022/11/04 06:18:29;;;;;;;4.38;0.50;;;9.40;99.90;;;;;;5069243;28;20238;-82
2022/11/04 06:21:13;;;;;;;5.57;0.60;;;9.30;99.90;;;;;;5053814;28;20500;-82
2022/11/04 06:23:40;;;;;;;4.13;0.40;;;9.30;99.90;;;;;;5073923;28;20564;-82
2022/11/04 06:26:06;;;;;;;1.48;0.52;;;9.30;99.90;;;;;;5073647;28;20040;-82
2022/11/04 06:28:32;;;;;;;4.18;0.80;;;9.30;99.90;;;;;;5074135;28;20032;-82
2022/11/04 06:30:59;;;;;;;2.97;0.98;;;9.30;99.90;;;;;;5074319;28;20041;-82
2022/11/04 06:33:25;;;;;;;5.45;0.52;;;9.50;99.90;;;;;;5073080;28;20040;-83
2022/11/04 06:35:51;;;;;;;4.63;1.35;;;9.30;99.90;;;;;;5073682;28;20382;-82
2022/11/04 06:38:17;;;;;;;3.17;1.00;;;9.30;99.90;;;;;;5073318;28;20060;-82
2022/11/04 06:40:42;;;;;;;2.80;0.80;;;9.20;99.90;;;;;;5040380;28;20114;-82
2022/11/04 06:43:08;;;;;;;2.07;0.80;;;9.30;99.90;;;;;;5056559;28;20040;-82
2022/11/04 06:45:34;;;;;;;4.53;0.90;;;9.20;99.90;;;;;;5073340;28;20800;-82
2022/11/04 06:47:59;;;;;;;2.70;0.80;;;9.20;99.90;;;;;;5073219;28;20123;-82
2022/11/04 06:50:25;;;;;;;3.93;0.90;;;9.20;99.90;;;;;;5055371;28;20075;-83
2022/11/04 06:52:51;;;;;;;4.13;0.90;;;9.20;99.90;;;;;;5055933;28;20389;-82
2022/11/04 06:55:16;;;;;;;3.27;1.13;;;9.30;99.90;;;;;;5039142;28;20079;-82
2022/11/04 06:57:42;;;;;;;3.60;0.73;;;9.10;99.90;;;;;;5072856;28;20042;-83
2022/11/04 07:00:08;;;;;;;5.20;1.00;;;9.10;99.90;;;;;;5072777;28;20681;-83
2022/11/04 07:02:36;;;;;;;3.20;1.10;;;9.00;99.90;;;;;;5056785;28;20081;-83
2022/11/04 07:05:01;;;;;;;2.75;0.93;;;9.00;99.90;;;;;;5056591;28;20048;-83
2022/11/04 07:07:28;;;;;;;3.97;0.83;;;9.00;99.90;;;;;;5056066;28;20045;-82
2022/11/04 07:09:54;;;;;;;2.28;1.00;;;9.00;99.90;;;;;;5073452;28;20376;-82
2022/11/04 07:12:23;;;;;;;5.27;1.30;;;9.00;99.90;;;;;;5055616;28;20036;-82
2022/11/04 07:14:50;;;;;;;5.72;1.02;;;9.20;99.90;;;;;;5072376;28;20037;-82
2022/11/04 07:17:15;;;;;;;;;;;9.10;99.90;;;;;;5056352;28;20036;-82
2022/11/04 07:19:41;;;;;;;4.10;1.13;;;9.50;99.90;;;;;;5072899;28;20372;-82
2022/11/04 07:22:07;;;;;;;3.13;0.80;;;9.30;99.90;;;;;;5055587;28;20105;-82
2022/11/04 07:24:33;;;;;;;1.60;0.73;;;9.60;99.90;;;;;;5039919;28;20542;-82
2022/11/04 07:26:59;;;;;;;3.47;0.93;;;9.90;99.90;;;;;;5056357;28;20044;-82
2022/11/04 07:29:25;;;;;;;3.88;1.15;;;10.10;99.90;;;;;;5072288;28;20041;-81
2022/11/04 07:31:51;;;;;;;2.35;1.13;;;10.30;99.90;;;;;;5072339;28;20052;-82
2022/11/04 07:34:16;;;;;;;3.78;1.00;;;10.20;99.90;;;;;;5072460;28;20063;-82
2022/11/04 07:36:42;;;;;;;4.50;0.90;;;10.30;99.90;;;;;;5072972;28;20397;-82
2022/11/04 07:39:08;;;;;;;3.80;1.10;;;10.40;99.90;;;;;;5056116;28;20039;-82
2022/11/04 07:41:34;;;;;;;3.10;0.70;;;10.70;99.90;;;;;;5072754;28;20310;-82
2022/11/04 07:44:04;;;;;;;1.33;0.60;;;10.70;99.90;;;;;;5056035;28;20309;-83
2022/11/04 07:46:30;;;;;;;4.20;1.02;;;11.00;99.90;;;;;;5056204;28;20044;-82
2022/11/04 07:49:00;;;;;;;2.22;0.90;;;11.20;99.90;;;;;;5056006;28;20048;-83
2022/11/04 07:51:26;;;;;;;2.70;0.80;;;11.30;99.90;;;;;;5070038;28;20033;-83
2022/11/04 07:53:53;;;;;;;1.58;0.68;;;11.40;99.90;;;;;;5055856;28;20441;-83
2022/11/04 07:56:19;;;;;;;3.17;0.85;;;11.70;99.90;;;;;;5072156;28;20086;-83
2022/11/04 07:58:45;;;;;;;1.85;0.80;;;12.00;99.90;;;;;;5072426;28;20067;-83
2022/11/04 08:01:13;;;;;;;3.88;0.63;;;12.20;99.90;;;;;;5071979;28;20117;-83
2022/11/04 08:03:39;;;;;;;1.90;0.80;;;12.30;99.90;;;;;;5055838;28;20040;-81
2022/11/04 08:06:07;;;;;;;3.22;0.75;;;12.40;99.90;;;;;;5038841;28;20370;-82
2022/11/04 08:08:33;;;;;;;1.40;0.70;;;12.50;99.90;;;;;;5071338;28;20071;-81
2022/11/04 08:11:05;;;;;;;3.05;0.60;;;12.80;99.90;;;;;;5072088;28;20044;-81
2022/11/04 08:13:33;;;;;;;4.60;1.10;;;13.30;99.90;;;;;;5071585;28;20105;-81
2022/11/04 08:16:08;;;;;;;2.08;0.70;;;14.00;99.90;;;;;;5055350;28;20404;-82
2022/11/04 08:18:35;;;;;;;2.25;0.55;;;14.70;99.90;;;;;;5072097;28;20500;-82
2022/11/04 08:21:02;;;;;;;2.22;0.55;;;15.20;99.90;;;;;;5072610;28;20033;-82
2022/11/04 08:23:28;;;;;;;3.17;0.80;;;15.70;99.90;;;;;;5054984;28;20081;-82
2022/11/04 08:25:54;;;;;;;3.20;0.75;;;15.70;99.90;;;;;;5072506;28;20044;-82
2022/11/04 08:28:20;;;;;;;2.10;0.73;;;16.10;99.90;;;;;;5071868;28;20033;-83
2022/11/04 08:30:55;;;;;;;3.40;0.52;;;16.50;99.90;;;;;;5072200;28;20098;-82
2022/11/04 08:33:22;;;;;;;2.40;0.75;;;16.90;99.90;;;;;;5071590;28;20041;-82
2022/11/04 08:35:48;;;;;;;2.50;0.60;;;17.20;99.90;;;;;;5071773;28;20460;-81
2022/11/04 08:38:14;;;;;;;4.80;0.52;;;17.60;99.90;;;;;;5054904;28;20076;-82
2022/11/04 08:40:41;;;;;;;2.05;0.50;;;17.80;99.90;;;;;;5054524;28;20113;-74
2022/11/04 08:43:07;;;;;;;2.40;0.70;;;18.10;99.90;;;;;;5070497;28;20032;-74
2022/11/04 08:45:37;;;;;;;3.10;0.52;;;18.20;99.90;;;;;;5069708;28;20045;-74
2022/11/04 08:48:03;;;;;;;2.78;0.77;;;18.30;99.90;;;;;;5054732;28;20431;-73
2022/11/04 08:50:29;;;;;;;4.93;0.93;;;18.70;99.90;;;;;;5069861;28;20041;-74
2022/11/04 08:52:55;;;;;;;4.43;0.65;;;18.80;99.90;;;;;;5037586;28;20469;-74
2022/11/04 08:55:21;;;;;;;1.63;0.50;;;19.40;99.90;;;;;;5069872;28;20048;-75
2022/11/04 08:57:46;;;;;;;2.53;0.50;;;19.50;99.90;;;;;;5070303;28;20374;-74
2022/11/04 09:00:12;;;;;;;1.45;0.40;;;19.60;99.90;;;;;;5070531;28;20039;-74
2022/11/04 09:02:39;;;;;;;2.10;0.52;;;19.80;99.90;;;;;;5069997;28;20087;-74
2022/11/04 09:05:04;;;;;;;;;;;19.80;99.90;;;;;;5054064;28;20036;-74
2022/11/04 09:07:30;;;;;;;2.75;0.60;;;19.90;99.90;;;;;;5036720;28;19922;-74
2022/11/04 09:09:55;;;;;;;1.35;0.40;;;20.10;99.90;;;;;;5054061;28;20060;-75
2022/11/04 09:12:21;;;;;;;3.17;0.68;;;20.40;99.90;;;;;;5070019;28;20050;-75
2022/11/04 09:14:47;;;;;;;2.00;0.40;;;20.40;99.90;;;;;;5070316;28;20033;-76
2022/11/04 09:17:13;;;;;;;2.92;0.25;;;20.60;99.90;;;;;;5070433;28;20098;-76
2022/11/04 09:19:38;;;;;;;3.08;0.40;;;20.50;99.90;;;;;;5070168;28;20461;-76
2022/11/04 09:22:04;;;;;;;3.15;0.40;;;20.60;99.90;;;;;;5053611;28;20155;-76
2022/11/04 09:24:30;;;;;;;3.20;0.40;;;20.50;99.90;;;;;;5052840;28;20045;-75
2022/11/04 09:26:56;;;;;;;3.30;0.50;;;20.50;99.90;;;;;;5053821;28;20103;-75
2022/11/04 09:29:22;;;;;;;1.42;0.35;;;20.70;99.90;;;;;;5053478;28;20067;-75
2022/11/04 09:31:49;;;;;;;2.75;0.40;;;21.10;99.90;;;;;;5070112;28;20064;-75
2022/11/04 09:34:16;;;;;;;3.78;0.50;;;21.30;99.90;;;;;;5069660;28;20091;-75
2022/11/04 09:36:43;;;;;;;3.17;0.43;;;21.20;99.90;;;;;;5069825;28;20059;-75
2022/11/04 09:39:09;;;;;;;3.50;0.50;;;21.20;99.90;;;;;;5069833;28;20429;-74
2022/11/04 09:41:41;;;;;;;1.90;0.50;;;21.40;99.90;;;;;;5069704;28;20033;-75
2022/11/04 09:44:26;;;;;;;3.25;0.40;;;21.50;99.90;;;;;;5069268;28;20060;-75
2022/11/04 09:47:00;;;;;;;2.10;0.30;;;21.50;99.90;;;;;;5069434;28;20067;-75
2022/11/04 09:49:31;;;;;;;5.20;0.50;;;21.70;99.90;;;;;;5069432;28;20098;-75
2022/11/04 09:51:58;;;;;;;2.72;0.55;;;21.70;99.90;;;;;;5070159;28;20036;-75
2022/11/04 09:54:30;;;;;;;1.65;0.50;;;21.80;99.90;;;;;;5069398;28;20480;-75
2022/11/04 09:57:00;;;;;;;2.92;0.52;;;21.80;99.90;;;;;;5069995;28;20530;-74
2022/11/04 09:59:29;;;;;;;3.10;0.55;;;21.90;99.90;;;;;;5069079;28;20044;-75
2022/11/04 10:02:15;;;;;;;1.52;0.40;;;22.00;99.90;;;;;;5069731;28;20044;-75
2022/11/04 10:05:04;;;;;;;3.42;0.63;;;22.00;99.90;;;;;;5069663;28;20040;-75
2022/11/04 10:07:56;;;;;;;2.08;0.40;;;22.40;99.90;;;;;;5040504;28;20443;-75
2022/11/04 10:10:41;;;;;;;4.15;0.82;;;22.50;99.90;;;;;;5053003;28;20552;-75
2022/11/04 10:13:45;;;;;;;4.07;0.57;;;22.50;99.90;;;;;;5069872;28;20136;-75
2022/11/04 10:16:41;;;;;;;3.40;0.55;;;22.90;99.90;;;;;;5020551;28;20127;-75
2022/11/04 10:19:51;;;;;;;2.30;0.50;;;23.30;99.90;;;;;;5051044;28;20064;-75
2022/11/04 10:22:38;;;;;;;3.75;1.15;;;23.60;99.90;;;;;;5049613;28;20117;-75
2022/11/04 10:25:13;;;;;;;4.03;0.77;;;23.60;99.90;;;;;;5068275;28;20052;-75
2022/11/04 10:27:43;;;;;;;5.05;0.63;;;23.50;99.90;;;;;;5056652;28;20071;-75
2022/11/04 10:30:17;;;;;;;2.30;0.52;;;23.50;99.90;;;;;;5068819;28;20082;-75
2022/11/04 10:33:08;;;;;;;3.85;0.73;;;23.50;99.90;;;;;;5067759;28;20048;-75
2022/11/04 10:35:42;;;;;;;2.47;0.43;;;23.60;99.90;;;;;;5052249;28;20145;-74
2022/11/04 10:38:32;;;;;;;2.65;0.55;;;23.60;99.90;;;;;;5069614;28;20087;-75
2022/11/04 10:40:58;;;;;;;2.90;0.57;;;23.70;99.90;;;;;;5068143;28;20044;-75
2022/11/04 10:43:27;;;;;;;2.22;0.70;;;23.80;99.90;;;;;;5068992;28;20033;-75
2022/11/04 10:45:59;;;;;;;2.40;0.65;;;23.60;99.70;;;;;;5067428;28;20528;-74
2022/11/04 10:48:31;;;;;;;4.57;0.60;;;23.70;99.90;;;;;;5068759;28;20067;-74
2022/11/04 10:50:58;;;;;;;3.03;0.47;;;23.90;99.90;;;;;;5069408;28;20068;-74
2022/11/04 10:53:27;;;;;;;4.47;0.85;;;24.20;99.90;;;;;;5052291;28;20068;-74
2022/11/04 10:55:53;;;;;;;5.07;0.57;;;24.10;99.60;;;;;;5066485;28;20079;-74
2022/11/04 10:58:23;;;;;;;;;;;24.10;99.90;;;;;;5052908;28;20067;-75
2022/11/04 11:00:49;;;;;;;3.70;0.70;;;23.80;99.00;;;;;;5069724;28;19916;-74
2022/11/04 11:03:25;;;;;;;;;;;23.20;99.90;;;;;;5036441;28;20090;-75
2022/11/04 11:05:52;;;;;;;3.40;0.60;;;22.70;99.90;;;;;;5069371;28;20348;-76
2022/11/04 11:08:36;;;;;;;3.88;0.60;;;22.00;99.90;;;;;;5071668;28;20116;-75
2022/11/04 11:11:05;;;;;;;3.03;0.50;;;21.30;99.90;;;;;;5072994;28;20492;-74
2022/11/04 11:13:41;;;;;;;2.72;0.52;;;20.80;99.90;;;;;;5072110;28;20070;-73
2022/11/04 11:16:16;;;;;;;2.95;0.63;;;20.40;99.90;;;;;;5072414;28;20032;-73
2022/11/04 11:18:42;;;;;;;6.30;0.52;;;20.40;99.90;;;;;;5069745;28;20428;-73
2022/11/04 11:21:22;;;;;;;5.05;0.80;;;20.30;99.90;;;;;;5071959;28;20094;-73
2022/11/04 11:23:50;;;;;;;2.47;0.60;;;20.30;99.90;;;;;;5055317;28;20056;-73
2022/11/04 11:26:17;;;;;;;3.88;0.68;;;20.40;99.90;;;;;;5072397;28;20461;-73
2022/11/04 11:28:55;;;;;;;3.03;0.60;;;20.30;99.90;;;;;;5071445;28;20120;-73
2022/11/04 11:31:23;;;;;;;3.30;0.50;;;20.30;99.90;;;;;;5072163;28;20040;-73
2022/11/04 11:33:52;;;;;;;4.88;0.82;;;20.40;99.90;;;;;;5049890;28;20049;-73
2022/11/04 11:36:32;;;;;;;4.75;0.77;;;20.40;99.90;;;;;;5054515;28;20086;-73
2022/11/04 11:39:05;;;;;;;3.17;0.43;;;20.00;99.90;;;;;;5069669;28;20036;-73
2022/11/04 11:41:33;;;;;;;4.88;0.60;;;19.80;99.90;;;;;;5070344;28;20040;-73
2022/11/04 11:44:04;;;;;;;3.10;0.43;;;19.40;99.90;;;;;;5071613;28;20157;-72
2022/11/04 11:46:33;;;;;;;2.95;0.47;;;19.20;99.90;;;;;;5055269;28;20511;-74
2022/11/04 11:49:01;;;;;;;3.53;0.70;;;18.80;99.90;;;;;;5072075;28;20540;-74
2022/11/04 11:51:33;;;;;;;4.25;0.43;;;18.40;99.90;;;;;;5055244;28;20044;-74
2022/11/04 11:54:16;;;;;;;2.55;0.32;;;17.70;99.90;;;;;;5052578;28;20036;-74
2022/11/04 11:56:47;;;;;;;5.22;0.60;;;16.90;99.90;;;;;;5071718;28;20041;-75
2022/11/04 11:59:37;;;;;;;4.05;0.40;;;16.40;99.90;;;;;;5054857;28;20384;-74
2022/11/04 12:02:21;;;;;;;1.15;0.20;;;16.30;99.90;;;;;;5070300;28;20033;-74
2022/11/04 12:04:47;;;;;;;3.40;0.40;;;16.20;99.90;;;;;;5070257;28;20036;-74
2022/11/04 12:07:18;;;;;;;2.92;0.40;;;16.80;99.90;;;;;;5054976;28;20037;-74
2022/11/04 12:10:02;;;;;;;2.00;0.35;;;17.20;99.90;;;;;;5052802;28;20040;-74
2022/11/04 12:12:34;;;;;;;3.40;0.55;;;16.90;99.90;;;;;;5054635;28;20037;-74
2022/11/04 12:15:29;;;;;;;3.97;0.60;;;16.60;99.90;;;;;;5070947;28;20389;-73
2022/11/04 12:18:27;;;;;;;3.75;0.43;;;16.20;99.90;;;;;;5070357;28;20512;-74
2022/11/04 12:21:19;;;;;;;2.35;0.43;;;15.90;99.90;;;;;;5062009;28;20137;-74
2022/11/04 12:23:54;;;;;;;2.10;0.32;;;15.60;99.90;;;;;;5053115;28;20078;-74
2022/11/04 12:26:41;;;;;;;2.83;0.30;;;15.50;99.90;;;;;;5070542;28;20045;-73
2022/11/04 12:29:16;;;;;;;1.77;0.32;;;15.40;99.90;;;;;;5069667;28;20091;-74
2022/11/04 12:31:48;;;;;;;1.63;0.45;;;15.60;99.90;;;;;;5070521;28;20037;-74
2022/11/04 12:34:38;;;;;;;0.73;0.22;;;15.70;99.90;;;;;;5070875;28;20040;-74
2022/11/04 12:37:38;;;;;;;1.23;0.20;;;15.90;99.90;;;;;;5070543;28;20044;-74
2022/11/04 12:40:21;;;;;;;2.30;0.28;;;15.90;99.90;;;;;;5070779;28;20040;-74
2022/11/04 12:43:05;;;;;;;1.35;0.38;;;15.90;99.90;;;;;;5052859;28;20357;-75
2022/11/04 12:46:12;;;;;;;1.80;0.40;;;16.00;99.90;;;;;;5053223;28;20037;-75
2022/11/04 12:49:07;;;;;;;2.00;0.30;;;16.00;99.90;;;;;;5055768;28;20048;-75
2022/11/04 12:52:04;;;;;;;2.38;0.30;;;16.30;99.90;;;;;;5068806;28;20110;-74
2022/11/04 12:54:52;;;;;;;3.83;0.65;;;16.30;99.90;;;;;;5068676;28;20032;-75
2022/11/04 12:57:50;;;;;;;5.10;0.50;;;16.40;99.90;;;;;;5070461;28;20063;-75
2022/11/04 13:00:23;;;;;;;3.15;0.60;;;16.60;99.90;;;;;;5069938;28;20044;-75
2022/11/04 13:02:59;;;;;;;3.17;0.40;;;16.50;99.90;;;;;;5070122;28;20029;-75
2022/11/04 13:05:41;;;;;;;1.73;0.40;;;16.60;99.90;;;;;;5070550;28;20090;-74
2022/11/04 13:08:19;;;;;;;1.98;0.50;;;16.60;99.90;;;;;;5070209;28;20046;-74
2022/11/04 13:10:55;;;;;;;2.20;0.40;;;16.60;99.90;;;;;;5051133;28;20045;-74
2022/11/04 13:13:28;;;;;;;2.47;0.30;;;16.70;99.90;;;;;;5070148;28;20044;-74
2022/11/04 13:15:57;;;;;;;1.70;0.50;;;16.70;99.90;;;;;;5070148;28;20079;-75
2022/11/04 13:18:29;;;;;;;1.85;0.32;;;16.70;99.90;;;;;;5070412;28;20084;-75
2022/11/04 13:21:19;;;;;;;4.50;0.80;;;16.70;99.90;;;;;;5069779;28;20045;-73
2022/11/04 13:23:57;;;;;;;7.25;1.05;;;16.60;99.90;;;;;;5050434;28;20048;-74
2022/11/04 13:26:23;;;;;;;6.38;0.85;;;16.50;99.90;;;;;;5069680;28;20384;-74
2022/11/04 13:29:13;;;;;;;3.60;0.75;;;16.50;99.90;;;;;;5069946;28;20044;-75
2022/11/04 13:31:57;;;;;;;5.75;0.60;;;16.20;99.90;;;;;;5069247;28;20056;-75
2022/11/04 13:34:32;;;;;;;3.38;0.77;;;16.10;99.90;;;;;;5067823;28;20040;-75
2022/11/04 13:37:20;;;;;;;3.10;0.50;;;16.00;99.90;;;;;;5069970;28;20043;-75
2022/11/04 13:39:53;;;;;;;4.10;0.43;;;16.00;99.90;;;;;;5068314;28;20040;-75
2022/11/04 13:42:38;;;;;;;4.63;0.57;;;16.00;99.90;;;;;;5067668;28;20076;-75
2022/11/04 13:45:12;;;;;;;4.88;0.70;;;15.90;99.90;;;;;;5069790;28;20044;-75
2022/11/04 13:47:54;;;;;;;3.85;0.55;;;15.80;99.90;;;;;;5050664;28;20083;-75